CheckWX is a tool to help pilots better visualize weather data.  It is not intended as a substitute for an official pre-flight weather briefing.

04:18:50 UTC

KMEI TAF
Key Field Airport
Meridian, Mississippi, USA
KMEI 262352Z 2700/2724 VRB05KT P6SM SCT250 FM272200 35005KT P6SM VCTS SCT040CB SCT250

Jun-27@
00:00 UTC

Jun-27 @ 00:00 UTC

Jun-27@
22:00 UTC

Jun-27 @ 22:00 UTC

KMEI 262352Z 2700/2724 VRB05KT P6SM SCT250
Wind
  • Variable at 5 KTS
Cloud Levels
  • Scattered at 25,000' AGL

Jun-27@
22:00 UTC

Jun-27 @ 22:00 UTC

Jun-28@
00:00 UTC

Jun-28 @ 00:00 UTC

FM272200 35005KT P6SM VCTS SCT040CB SCT250

From

From Standard forecast or significant change

Wind
  • 350° at 5 KTS
Conditions
Area Thunderstorm
Cloud Levels
  • Scattered at 4,000' AGL
  • Scattered at 25,000' AGL